메인 페이지
METAR-TAF:

METAR-TAF

공항 :

Metropolitan Oakland International Airport

오클랜드, 캘리포니아, 미국

위도: 37-43-10N, 경도: 122-14-07W, 고도: 1m

현재 날씨관측

예보는 58분 전, 18:53시(UTC)에 발표되었습니다.
10kt
온도 18°C
습도 56%
기압 1015 hPa
시정: 16.1km
고도 1700ft 상공 구름 조금

METAR: KOAK 131853Z 27010KT 10SM FEW017 18/09 A2998 RMK AO2 SLP152 T01780094

시각: 12:51 (19:51 UTC)

예보

예보는 2 시간 18분 전, 17:33시(UTC)에 발표되었습니다.
예보 대상 시간: 13일 18시부터 14일 24시까지 (UTC)
서북서15kt
시정: 10km
고도 1500ft 상공 구름 조금
14일 0600시부터 (UTC)
8kt
시정: 10km
고도 1200ft 상공 구름 보통
14일 1000시부터 (UTC)
6kt
시정: 10km
고도 1200ft 상공 구름 많음
14일 1700시부터 (UTC)
10kt
시정: 10km
맑음
14일 2100시부터 (UTC)
14kt
시정: 10km
맑음

TAF: KOAK 131733Z 1318/1424 30015KT P6SM FEW015 FM140600 26008KT P6SM SCT012 FM141000 26006KT P6SM BKN012 FM141700 28010KT P6SM SKC FM142100 27014KT P6SM SKC

4,000개 이상의 공항 관측 자료 및 예보 (METAR 및 TAF 보고).

지도상에서 검색 가능한 기상관측소가 노란 점과 빨간 점으로 표시되어 있습니다.

기상관측소 명을 보려면 표시 위로 마우스를 이동하세요.

날씨 관측과 예보를 보려면 클릭하세요.

지도 변경 : 확대하려면 엑스 표시가 있는 녹색 버튼, 축소하려면 빼기 표시가 있는 녹색 버튼, 다음 페이지의 지도를 보려면 녹색 화살표를 클릭하세요.


METAR-TAF: